Pagina principale
METAR-TAF:

METAR-TAF

Aeroporti :

Aeroporto Internazionale del Kuwait

Madinat al-Kuwait, Kuwait

latitudine: 29-13N, longitudine: 047-59E, altezza: 55 m

Osservazione

Il bollettino è stato emesso 47 minuti fa, alle 12:00 UTC
Vento 10 kt da est/nord-est
Temperature 47°C
Umidità 11%
Pressione 1000 hPa
Visibilità 10 km o più
nessuna nube inferiore a 1500 m e nessun cumulonembo

METAR: OKBK 161200Z 07010KT CAVOK 47/09 Q1000 NOSIG

Ora: 15:47 (12:47 UTC)

Previsione

Il bollettino è stato emesso 2 ore e 2 minuti fa, alle 10:45 UTC
Previsione valida dal 16 alle 12 UTC al 17 alle 18 UTC
Vento 3 kt da direzioni variabili
Visibilità: 7000 m
Evoluzione graduale
dal 16 alle 21 UTC al 16 alle 23 UTC
Vento 10 kt da nord/nord-ovest con raffiche fino a 20 kt

TAF: OKBK 161045Z 1612/1718 VRB03KT 7000 NSC BECMG 1621/1623 33010G20KT

Osservazioni e previsioni meteorologiche di più di 4000 aeroporti (messaggi METAR e TAF).

Le stazioni disponibili sono rappresentate dai dischi gialli e rossi sulla carta.

Puntare il mouse per vedere il nome della stazione.

Clicca sopra per visualizzare le osservazioni e previsioni meteorologiche.

Per cambiare la mappa : fare clic sui pulsanti verdi con una croce nera per ingrandire, il pulsante verde con un trattino per diminuire, o sulla freccia verde per le mappe adiacenti.


METAR-TAF: